createdAt,value
2019-03-11T00:01:51.065Z,48.50
2019-03-11T00:04:19.070Z,48.50
2019-03-11T00:06:45.235Z,48.50
2019-03-11T00:09:12.336Z,48.50
2019-03-11T00:11:39.472Z,48.50
2019-03-11T00:14:06.534Z,48.40
2019-03-11T00:16:33.605Z,48.40
2019-03-11T00:19:00.743Z,48.40
2019-03-11T00:21:27.820Z,48.30
2019-03-11T00:23:54.902Z,48.40
2019-03-11T00:26:21.997Z,48.30
2019-03-11T00:28:49.065Z,48.30
2019-03-11T00:31:16.151Z,48.40
2019-03-11T00:33:43.247Z,48.40
2019-03-11T00:36:10.314Z,48.40
2019-03-11T00:38:37.411Z,48.40
2019-03-11T00:41:04.510Z,48.50
2019-03-11T00:43:31.562Z,48.40
2019-03-11T00:45:58.664Z,48.40
2019-03-11T00:48:25.756Z,48.40
2019-03-11T00:50:52.877Z,49.10
2019-03-11T00:53:19.977Z,48.30
2019-03-11T00:55:47.037Z,48.40
2019-03-11T00:58:14.106Z,48.30
2019-03-11T01:00:41.228Z,48.30
2019-03-11T01:03:08.328Z,48.30
2019-03-11T01:05:35.419Z,48.40
2019-03-11T01:08:02.506Z,48.30
2019-03-11T01:10:29.597Z,48.30
2019-03-11T01:12:56.680Z,48.30
2019-03-11T01:15:23.756Z,48.30
2019-03-11T01:17:50.853Z,48.30
2019-03-11T01:20:18.013Z,48.30
2019-03-11T01:22:45.121Z,48.30
2019-03-11T01:25:12.273Z,48.30
2019-03-11T01:27:39.369Z,48.20
2019-03-11T01:30:06.852Z,48.30
2019-03-11T01:32:33.931Z,48.20
2019-03-11T01:35:01.021Z,48.20
2019-03-11T01:37:28.073Z,48.10
2019-03-11T01:39:55.160Z,48.20
2019-03-11T01:42:22.241Z,48.20
2019-03-11T01:44:49.320Z,48.20
2019-03-11T01:47:16.425Z,48.20
2019-03-11T01:49:43.492Z,48.20
2019-03-11T01:52:10.594Z,48.20
2019-03-11T01:54:37.667Z,48.10
2019-03-11T01:57:04.753Z,48.20
2019-03-11T01:59:31.825Z,48.30
2019-03-11T02:01:58.906Z,48.20
2019-03-11T02:04:25.990Z,48.10
2019-03-11T02:06:53.059Z,48.10
2019-03-11T02:09:20.133Z,48.10
2019-03-11T02:11:47.236Z,48.10
2019-03-11T02:14:14.316Z,48.10
2019-03-11T02:16:41.388Z,48.10
2019-03-11T02:19:08.495Z,48.10
2019-03-11T02:21:35.593Z,48.10
2019-03-11T02:24:02.671Z,48.20
2019-03-11T02:26:29.729Z,48.10
2019-03-11T02:28:56.789Z,48.10
2019-03-11T02:31:23.886Z,48.10
2019-03-11T02:33:50.951Z,48.10
2019-03-11T02:36:18.046Z,48.10
2019-03-11T02:38:45.133Z,48.10
2019-03-11T02:41:12.198Z,48.20
2019-03-11T02:43:39.315Z,48.10
2019-03-11T02:46:06.403Z,48.10
2019-03-11T02:48:33.513Z,48.10
2019-03-11T02:51:00.580Z,48.10
2019-03-11T02:53:27.686Z,48.10
2019-03-11T02:55:54.780Z,48.10
2019-03-11T02:58:21.862Z,48.10
2019-03-11T03:00:48.990Z,48.10
2019-03-11T03:03:21.826Z,48.10
2019-03-11T03:05:52.429Z,48.10
2019-03-11T03:08:19.526Z,48.10
2019-03-11T03:10:46.591Z,48.00
2019-03-11T03:13:13.674Z,48.00
2019-03-11T03:15:40.746Z,48.10
2019-03-11T03:18:07.837Z,48.10
2019-03-11T03:20:34.953Z,48.00
2019-03-11T03:23:02.037Z,48.00
2019-03-11T03:25:34.372Z,48.10
2019-03-11T03:27:56.382Z,48.00
2019-03-11T03:30:23.373Z,48.10
2019-03-11T03:32:50.496Z,48.10
2019-03-11T03:35:17.601Z,48.10
2019-03-11T03:37:44.685Z,48.00
2019-03-11T03:40:11.803Z,48.00
2019-03-11T03:42:38.987Z,48.00
2019-03-11T03:45:18.540Z,48.00
2019-03-11T03:47:45.637Z,48.00
2019-03-11T03:50:12.727Z,48.00
2019-03-11T03:52:39.866Z,48.10
2019-03-11T03:55:06.945Z,48.00
2019-03-11T03:57:34.037Z,48.00
2019-03-11T04:00:01.130Z,48.00
2019-03-11T04:02:28.210Z,48.00
2019-03-11T04:04:55.293Z,48.00
2019-03-11T04:07:22.372Z,48.00
2019-03-11T04:09:49.506Z,48.00
2019-03-11T04:12:16.573Z,48.00
2019-03-11T04:14:43.675Z,48.00
2019-03-11T04:17:10.783Z,48.00
2019-03-11T04:19:37.893Z,48.10
2019-03-11T04:22:04.974Z,48.10
2019-03-11T04:24:32.089Z,48.00
2019-03-11T04:26:59.167Z,48.10
2019-03-11T04:29:26.234Z,48.00
2019-03-11T04:31:53.329Z,48.00
2019-03-11T04:34:20.438Z,48.10
2019-03-11T04:36:47.553Z,48.00
2019-03-11T04:39:14.658Z,48.00
2019-03-11T04:41:41.724Z,48.00
2019-03-11T04:44:08.818Z,48.00
2019-03-11T04:46:35.916Z,48.10
2019-03-11T04:49:03.024Z,48.10
2019-03-11T04:51:30.124Z,48.10
2019-03-11T04:53:57.197Z,48.10
2019-03-11T04:56:24.277Z,48.10
2019-03-11T04:58:51.353Z,48.00
2019-03-11T05:01:18.418Z,48.10
2019-03-11T05:03:46.341Z,48.10
2019-03-11T05:06:12.601Z,48.10
2019-03-11T05:08:39.681Z,48.10
2019-03-11T05:11:06.799Z,48.10
2019-03-11T05:13:33.908Z,48.00
2019-03-11T05:16:01.007Z,48.10
2019-03-11T05:18:28.073Z,48.00
2019-03-11T05:20:55.164Z,48.10
2019-03-11T05:23:22.248Z,48.10
2019-03-11T05:25:49.346Z,48.10
2019-03-11T05:28:16.452Z,48.10
2019-03-11T05:30:43.517Z,48.10
2019-03-11T05:33:10.580Z,48.10
2019-03-11T05:35:37.669Z,48.10
2019-03-11T05:38:04.726Z,48.10
2019-03-11T05:40:31.825Z,48.00
2019-03-11T05:42:58.922Z,48.10
2019-03-11T05:45:26.026Z,48.00
2019-03-11T05:47:53.103Z,48.10
2019-03-11T05:50:20.181Z,48.00
2019-03-11T05:52:47.269Z,48.10
2019-03-11T05:55:14.337Z,48.00
2019-03-11T05:57:41.423Z,48.10
2019-03-11T06:00:11.493Z,48.00
2019-03-11T06:02:38.556Z,48.10
2019-03-11T06:05:05.824Z,48.10
2019-03-11T06:07:32.901Z,48.10
2019-03-11T06:09:59.993Z,48.10
2019-03-11T06:12:27.085Z,48.00
2019-03-11T06:14:54.176Z,48.00
2019-03-11T06:17:21.266Z,48.00
2019-03-11T06:19:48.788Z,48.10
2019-03-11T06:22:19.064Z,48.00
2019-03-11T06:24:46.120Z,48.10
2019-03-11T06:27:13.187Z,48.10
2019-03-11T06:29:40.329Z,48.10
2019-03-11T06:32:07.412Z,48.10
2019-03-11T06:34:34.513Z,48.00
2019-03-11T06:37:01.614Z,48.00
2019-03-11T06:39:28.764Z,48.10
2019-03-11T06:41:55.872Z,48.10
2019-03-11T06:44:22.971Z,48.00
2019-03-11T06:46:50.048Z,48.10
2019-03-11T06:49:17.142Z,48.10
2019-03-11T06:51:44.215Z,48.10
2019-03-11T06:54:11.315Z,48.00
2019-03-11T06:56:38.396Z,48.10
2019-03-11T06:59:05.490Z,48.00
2019-03-11T07:01:32.612Z,48.00
2019-03-11T07:03:59.701Z,48.10
2019-03-11T07:06:26.805Z,48.10
2019-03-11T07:08:53.894Z,48.00
2019-03-11T07:11:20.988Z,48.10
2019-03-11T07:13:48.057Z,48.00
2019-03-11T07:16:15.145Z,47.90
2019-03-11T07:18:42.249Z,48.00
2019-03-11T07:21:09.366Z,48.10
2019-03-11T07:23:36.472Z,48.00
2019-03-11T07:26:03.549Z,48.00
2019-03-11T07:28:30.625Z,48.10
2019-03-11T07:30:57.680Z,48.10
2019-03-11T07:33:24.773Z,48.10
2019-03-11T07:35:51.885Z,48.70
2019-03-11T07:38:19.033Z,48.10
2019-03-11T07:40:46.105Z,48.10
2019-03-11T07:43:13.205Z,48.00
2019-03-11T07:45:40.288Z,48.00
2019-03-11T07:48:07.361Z,48.00
2019-03-11T07:50:34.449Z,48.10
2019-03-11T07:53:01.505Z,48.10
2019-03-11T07:55:28.575Z,48.10
2019-03-11T07:57:55.637Z,48.00
2019-03-11T08:00:22.768Z,48.00
2019-03-11T08:02:49.882Z,48.10
2019-03-11T08:05:16.996Z,48.00
2019-03-11T08:07:44.076Z,47.90
2019-03-11T08:10:11.224Z,48.00
2019-03-11T08:12:38.321Z,48.00
2019-03-11T08:15:06.881Z,48.00
2019-03-11T08:17:33.965Z,48.00
2019-03-11T08:20:01.057Z,48.10
2019-03-11T08:22:28.130Z,47.90
2019-03-11T08:24:55.200Z,48.00
2019-03-11T08:27:22.285Z,48.00
2019-03-11T08:29:49.365Z,47.90
2019-03-11T08:32:16.449Z,47.90
2019-03-11T08:34:43.536Z,48.00
2019-03-11T08:37:10.647Z,48.00
2019-03-11T08:39:37.733Z,48.00
2019-03-11T08:42:04.856Z,48.00
2019-03-11T08:44:31.947Z,47.90
2019-03-11T08:46:59.046Z,47.90
2019-03-11T08:49:26.140Z,48.00
2019-03-11T08:51:53.229Z,47.90
2019-03-11T08:54:20.325Z,47.90
2019-03-11T08:56:47.408Z,47.90
2019-03-11T08:59:14.570Z,47.90
2019-03-11T09:01:41.581Z,47.90
2019-03-11T09:04:08.714Z,47.90
2019-03-11T09:06:35.801Z,47.90
2019-03-11T09:09:03.944Z,47.80
2019-03-11T09:11:31.020Z,47.80
2019-03-11T09:13:58.117Z,47.90
2019-03-11T09:16:25.204Z,47.90
2019-03-11T09:18:52.353Z,47.90
2019-03-11T09:21:19.429Z,47.80
2019-03-11T09:23:46.512Z,47.80
2019-03-11T09:26:13.583Z,47.90
2019-03-11T09:28:40.668Z,47.90
2019-03-11T09:31:07.759Z,47.80
2019-03-11T09:33:34.860Z,47.80
2019-03-11T09:36:01.924Z,47.90
2019-03-11T09:38:29.009Z,47.90
2019-03-11T09:40:56.117Z,47.80
2019-03-11T09:43:23.215Z,47.80
2019-03-11T09:45:50.321Z,47.80
2019-03-11T09:48:17.400Z,47.80
2019-03-11T09:50:44.472Z,47.80
2019-03-11T09:53:11.557Z,47.80
2019-03-11T09:55:38.657Z,47.80
2019-03-11T09:58:05.765Z,47.90
2019-03-11T10:00:32.870Z,47.80
2019-03-11T10:02:59.973Z,47.80
2019-03-11T10:05:27.044Z,47.80
2019-03-11T10:07:54.199Z,47.80
2019-03-11T10:10:21.311Z,47.70
2019-03-11T10:12:48.474Z,47.70
2019-03-11T10:15:16.513Z,47.80
2019-03-11T10:17:43.592Z,47.80
2019-03-11T10:20:10.995Z,47.80
2019-03-11T10:25:11.922Z,47.70
2019-03-11T10:27:39.021Z,47.80
2019-03-11T10:30:07.357Z,47.80
2019-03-11T10:32:34.451Z,47.70
2019-03-11T10:35:01.556Z,47.70
2019-03-11T10:37:28.648Z,47.80
2019-03-11T10:39:55.729Z,47.70
2019-03-11T10:42:22.823Z,47.70
2019-03-11T10:44:49.968Z,47.80
2019-03-11T10:47:17.072Z,47.70
2019-03-11T10:49:44.169Z,47.70
2019-03-11T10:52:11.276Z,47.90
2019-03-11T10:54:38.372Z,47.80
2019-03-11T10:57:05.464Z,47.80
2019-03-11T10:59:32.569Z,47.80
2019-03-11T11:01:59.661Z,47.80
2019-03-11T11:04:26.762Z,47.80
2019-03-11T11:06:53.957Z,47.80
2019-03-11T11:09:21.029Z,47.90
2019-03-11T11:11:48.102Z,47.80
2019-03-11T11:14:15.205Z,47.80
2019-03-11T11:16:42.285Z,47.80
2019-03-11T11:19:09.377Z,47.80
2019-03-11T11:21:36.506Z,47.90
2019-03-11T11:24:03.582Z,47.80
2019-03-11T11:26:30.673Z,47.80
2019-03-11T11:28:57.770Z,47.80
2019-03-11T11:31:24.865Z,47.80
2019-03-11T11:33:51.950Z,47.80
2019-03-11T11:36:19.033Z,47.80
2019-03-11T11:38:46.113Z,47.90
2019-03-11T11:41:13.188Z,47.90
2019-03-11T11:43:40.255Z,47.90
2019-03-11T11:46:07.333Z,48.00
2019-03-11T11:48:34.402Z,47.90
2019-03-11T11:51:01.476Z,47.90
2019-03-11T11:53:28.561Z,47.90
2019-03-11T11:55:58.000Z,47.90
2019-03-11T11:58:22.745Z,48.00
2019-03-11T12:00:49.862Z,47.90
2019-03-11T12:03:16.945Z,47.90
2019-03-11T12:05:44.040Z,48.00
2019-03-11T12:08:11.136Z,48.00
2019-03-11T12:10:38.212Z,48.00
2019-03-11T12:13:05.289Z,47.90
2019-03-11T12:15:32.388Z,48.00
2019-03-11T12:17:59.477Z,48.00
2019-03-11T12:20:26.569Z,48.00
2019-03-11T12:22:53.657Z,48.00
2019-03-11T12:25:20.747Z,47.90
2019-03-11T12:27:53.666Z,48.00
2019-03-11T12:30:17.118Z,48.10
2019-03-11T12:32:44.204Z,48.00
2019-03-11T12:35:11.301Z,48.70
2019-03-11T12:37:38.410Z,48.00
2019-03-11T12:40:06.134Z,48.10
2019-03-11T12:42:33.237Z,48.10
2019-03-11T12:45:00.397Z,48.10
2019-03-11T12:47:27.432Z,48.00
2019-03-11T12:49:54.560Z,48.10
2019-03-11T12:52:21.628Z,48.00
2019-03-11T12:54:48.710Z,48.10
2019-03-11T12:57:15.782Z,48.10
2019-03-11T12:59:42.885Z,48.10
2019-03-11T13:02:09.977Z,48.10
2019-03-11T13:04:37.056Z,48.10
2019-03-11T13:07:04.111Z,48.10
2019-03-11T13:09:31.180Z,48.10
2019-03-11T13:11:58.252Z,48.10
2019-03-11T13:14:25.337Z,48.10
2019-03-11T13:16:52.429Z,48.10
2019-03-11T13:19:19.533Z,48.10
2019-03-11T13:21:46.691Z,48.10
2019-03-11T13:24:13.778Z,48.10
2019-03-11T13:26:40.849Z,48.20
2019-03-11T13:29:07.941Z,48.10
2019-03-11T13:31:35.030Z,48.20
2019-03-11T13:34:02.130Z,48.10
2019-03-11T13:36:29.249Z,48.10
2019-03-11T13:38:56.332Z,48.10
2019-03-11T13:41:23.392Z,48.10
2019-03-11T13:43:50.474Z,48.10
2019-03-11T13:46:17.609Z,48.10
2019-03-11T13:48:44.701Z,48.10
2019-03-11T13:51:11.796Z,48.10
2019-03-11T13:53:38.858Z,48.10
2019-03-11T13:56:05.978Z,48.10
2019-03-11T13:58:33.410Z,48.10
2019-03-11T14:01:00.156Z,48.10
2019-03-11T14:03:27.294Z,48.10
2019-03-11T14:05:54.343Z,48.10
2019-03-11T14:08:21.429Z,48.10
2019-03-11T14:10:48.534Z,48.10
2019-03-11T14:13:15.625Z,48.10
2019-03-11T14:15:42.697Z,48.10
2019-03-11T14:18:09.791Z,48.10
2019-03-11T14:20:36.877Z,48.10
2019-03-11T14:23:03.965Z,48.10
2019-03-11T14:25:31.076Z,48.10
2019-03-11T14:27:58.148Z,48.10
2019-03-11T14:30:25.249Z,48.10
2019-03-11T14:32:52.321Z,48.10
2019-03-11T14:35:19.487Z,48.10
2019-03-11T14:37:46.818Z,48.10
2019-03-11T14:40:13.932Z,48.10
2019-03-11T14:42:41.032Z,48.20
2019-03-11T14:45:09.809Z,48.10
2019-03-11T14:47:36.909Z,48.10
2019-03-11T14:50:04.017Z,48.10
2019-03-11T14:52:31.154Z,48.10
2019-03-11T14:54:58.250Z,48.10
2019-03-11T14:57:25.316Z,48.10
2019-03-11T14:59:52.408Z,48.00
2019-03-11T15:02:19.532Z,48.10
2019-03-11T15:04:46.649Z,48.10
2019-03-11T15:07:13.709Z,48.10
2019-03-11T15:09:51.001Z,48.10
2019-03-11T15:12:07.921Z,48.00
2019-03-11T15:14:35.027Z,48.00
2019-03-11T15:17:02.117Z,48.00
2019-03-11T15:19:29.208Z,48.00
2019-03-11T15:21:56.291Z,48.00
2019-03-11T15:24:23.404Z,48.00
2019-03-11T15:26:50.476Z,48.10
2019-03-11T15:29:17.552Z,48.00
2019-03-11T15:31:44.653Z,48.00
2019-03-11T15:34:11.749Z,48.00
2019-03-11T15:36:38.861Z,48.00
2019-03-11T15:39:05.952Z,47.90
2019-03-11T15:41:33.054Z,48.00
2019-03-11T15:44:00.173Z,48.00
2019-03-11T15:46:27.253Z,47.90
2019-03-11T15:48:54.344Z,48.60
2019-03-11T15:51:21.628Z,47.90
2019-03-11T15:53:48.709Z,47.90
2019-03-11T15:56:15.785Z,47.90
2019-03-11T15:58:42.912Z,47.80
2019-03-11T16:01:09.986Z,47.90
2019-03-11T16:03:37.069Z,47.90
2019-03-11T16:06:04.145Z,47.90
2019-03-11T16:08:31.220Z,47.80
2019-03-11T16:10:58.302Z,47.90
2019-03-11T16:13:25.397Z,47.80
2019-03-11T16:15:52.485Z,47.90
2019-03-11T16:18:19.584Z,48.20
2019-03-11T16:20:46.705Z,47.90
2019-03-11T16:23:13.781Z,47.80
2019-03-11T16:25:40.889Z,47.80
2019-03-11T16:28:07.989Z,47.80
2019-03-11T16:30:35.082Z,47.80
2019-03-11T16:33:02.149Z,47.80
2019-03-11T16:35:29.220Z,47.80
2019-03-11T16:37:56.354Z,47.80
2019-03-11T16:40:23.455Z,47.80
2019-03-11T16:42:50.545Z,47.90
2019-03-11T16:45:17.674Z,47.80
2019-03-11T16:47:44.807Z,47.80
2019-03-11T16:50:13.052Z,47.80
2019-03-11T16:52:40.151Z,47.80
2019-03-11T16:55:08.747Z,47.90
2019-03-11T16:57:35.810Z,47.90
2019-03-11T17:00:03.532Z,47.90
2019-03-11T17:02:30.616Z,47.90
2019-03-11T17:04:57.697Z,48.10
2019-03-11T17:07:24.769Z,47.90
2019-03-11T17:09:51.853Z,47.90
2019-03-11T17:12:18.947Z,47.90
2019-03-11T17:14:46.036Z,47.80
2019-03-11T17:17:13.133Z,47.80
2019-03-11T17:19:40.225Z,47.90
2019-03-11T17:22:08.483Z,47.90
2019-03-11T17:24:34.457Z,47.90
2019-03-11T17:27:01.555Z,47.90
2019-03-11T17:29:28.686Z,47.80
2019-03-11T17:31:55.791Z,47.90
2019-03-11T17:34:22.905Z,47.90
2019-03-11T17:36:50.004Z,47.90
2019-03-11T17:39:17.124Z,47.90
2019-03-11T17:41:44.305Z,47.90
2019-03-11T17:44:11.381Z,47.80
2019-03-11T17:46:38.446Z,47.90
2019-03-11T17:49:05.562Z,47.90
2019-03-11T17:51:32.640Z,47.90
2019-03-11T17:53:59.709Z,48.60
2019-03-11T17:56:26.793Z,47.90
2019-03-11T17:58:53.877Z,48.00
2019-03-11T18:01:21.017Z,48.00
2019-03-11T18:03:48.105Z,48.00
2019-03-11T18:06:15.213Z,48.00
2019-03-11T18:08:42.313Z,48.00
2019-03-11T18:11:09.410Z,48.00
2019-03-11T18:13:36.499Z,48.00
2019-03-11T18:16:03.586Z,48.00
2019-03-11T18:18:33.469Z,48.00
2019-03-11T18:20:59.713Z,48.00
2019-03-11T18:23:24.880Z,48.10
2019-03-11T18:25:52.003Z,48.00
2019-03-11T18:28:19.088Z,48.00
2019-03-11T18:30:46.213Z,48.10
2019-03-11T18:33:13.334Z,48.80
2019-03-11T18:35:40.458Z,48.10
2019-03-11T18:38:07.619Z,48.10
2019-03-11T18:40:34.715Z,48.10
2019-03-11T18:43:01.822Z,48.10
2019-03-11T18:45:29.017Z,48.20
2019-03-11T18:47:56.053Z,48.10
2019-03-11T18:50:23.176Z,48.10
2019-03-11T18:52:50.323Z,48.20
2019-03-11T18:55:17.410Z,48.10
2019-03-11T18:57:44.516Z,48.20
2019-03-11T19:00:12.676Z,48.20
2019-03-11T19:02:39.805Z,48.20
2019-03-11T19:05:07.685Z,48.20
2019-03-11T19:07:34.808Z,48.20
2019-03-11T19:10:01.978Z,48.20
2019-03-11T19:12:28.981Z,48.20
2019-03-11T19:14:56.155Z,48.20
2019-03-11T19:17:23.218Z,48.20
2019-03-11T19:19:50.339Z,48.20
2019-03-11T19:22:17.460Z,48.20
2019-03-11T19:24:44.534Z,48.10
2019-03-11T19:27:11.666Z,48.20
2019-03-11T19:29:38.818Z,48.10
2019-03-11T19:32:06.128Z,48.20
2019-03-11T19:34:33.228Z,48.10
2019-03-11T19:37:00.353Z,48.20
2019-03-11T19:39:27.505Z,48.20
2019-03-11T19:41:54.660Z,48.20
2019-03-11T19:44:21.766Z,48.30
2019-03-11T19:46:48.853Z,48.20
2019-03-11T19:49:15.954Z,48.20
2019-03-11T19:51:43.092Z,48.20
2019-03-11T19:54:10.223Z,48.20
2019-03-11T19:56:37.297Z,48.20
2019-03-11T19:59:04.412Z,48.20
2019-03-11T20:01:31.515Z,48.20
2019-03-11T20:03:58.620Z,48.20
2019-03-11T20:06:25.780Z,48.20
2019-03-11T20:08:52.908Z,48.20
2019-03-11T20:11:20.028Z,48.20
2019-03-11T20:13:47.122Z,48.20
2019-03-11T20:16:14.205Z,48.30
2019-03-11T20:18:41.377Z,48.20
2019-03-11T20:21:08.504Z,48.20
2019-03-11T20:23:37.989Z,48.90
2019-03-11T20:26:02.835Z,48.20
2019-03-11T20:28:29.887Z,48.20
2019-03-11T20:30:57.125Z,48.30
2019-03-11T20:33:24.123Z,48.30
2019-03-11T20:35:51.262Z,48.30
2019-03-11T20:38:18.358Z,48.20
2019-03-11T20:40:45.462Z,48.20
2019-03-11T20:43:12.591Z,48.20
2019-03-11T20:45:39.693Z,48.30
2019-03-11T20:48:06.843Z,48.10
2019-03-11T20:50:42.154Z,48.20
2019-03-11T20:53:01.099Z,48.30
2019-03-11T20:55:28.206Z,48.20
2019-03-11T20:57:55.405Z,48.20
2019-03-11T21:00:22.495Z,48.20
2019-03-11T21:02:49.637Z,48.20
2019-03-11T21:05:18.599Z,48.20
2019-03-11T21:07:45.708Z,48.20
2019-03-11T21:10:13.439Z,48.20
2019-03-11T21:12:40.586Z,48.30
2019-03-11T21:15:07.725Z,48.30
2019-03-11T21:17:34.817Z,48.30
2019-03-11T21:20:02.034Z,48.30
2019-03-11T21:22:29.112Z,48.30
2019-03-11T21:24:59.826Z,48.30
2019-03-11T21:27:23.305Z,48.30
2019-03-11T21:29:50.485Z,48.20
2019-03-11T21:32:17.537Z,48.20
2019-03-11T21:34:44.717Z,48.20
2019-03-11T21:37:14.713Z,48.20
2019-03-11T21:39:38.921Z,48.20
2019-03-11T21:42:06.157Z,48.20
2019-03-11T21:44:33.084Z,48.30
2019-03-11T21:47:00.286Z,48.30
2019-03-11T21:49:27.334Z,48.30
2019-03-11T21:51:54.496Z,48.20
2019-03-11T21:54:21.552Z,48.20
2019-03-11T21:56:48.673Z,48.30
2019-03-11T21:59:15.787Z,48.30
2019-03-11T22:01:42.822Z,48.30
2019-03-11T22:04:09.897Z,48.30
2019-03-11T22:06:37.036Z,48.30
2019-03-11T22:09:05.464Z,48.30
2019-03-11T22:11:32.525Z,48.20
2019-03-11T22:13:59.600Z,48.20
2019-03-11T22:16:26.687Z,48.30
2019-03-11T22:18:53.782Z,48.20
2019-03-11T22:21:20.891Z,48.20
2019-03-11T22:23:47.959Z,48.10
2019-03-11T22:26:15.082Z,48.10
2019-03-11T22:28:42.172Z,48.20
2019-03-11T22:31:09.243Z,48.30
2019-03-11T22:33:36.319Z,48.30
2019-03-11T22:36:03.444Z,48.30
2019-03-11T22:38:30.541Z,48.20
2019-03-11T22:40:57.657Z,48.20
2019-03-11T22:43:24.740Z,48.20
2019-03-11T22:45:51.822Z,48.30
2019-03-11T22:48:20.841Z,48.30
2019-03-11T22:50:46.044Z,48.20
2019-03-11T22:53:13.117Z,48.30
2019-03-11T22:55:40.197Z,48.20
2019-03-11T22:58:07.272Z,48.20
2019-03-11T23:00:44.616Z,48.30
2019-03-11T23:03:11.710Z,48.20
2019-03-11T23:05:38.801Z,48.20
2019-03-11T23:08:05.895Z,48.20
2019-03-11T23:10:33.026Z,48.20
2019-03-11T23:13:00.098Z,48.20
2019-03-11T23:15:27.193Z,48.20
2019-03-11T23:17:54.277Z,48.20
2019-03-11T23:20:21.369Z,48.20
2019-03-11T23:22:48.445Z,48.20
2019-03-11T23:25:15.529Z,48.20
2019-03-11T23:27:42.634Z,48.20
2019-03-11T23:30:09.765Z,48.20
2019-03-11T23:32:36.860Z,48.20
2019-03-11T23:35:03.957Z,48.20
2019-03-11T23:37:31.068Z,48.20
2019-03-11T23:39:58.172Z,48.20
2019-03-11T23:42:25.259Z,48.20
2019-03-11T23:44:52.341Z,48.20
2019-03-11T23:47:19.432Z,48.20
2019-03-11T23:49:46.503Z,48.30
2019-03-11T23:52:13.612Z,48.30
2019-03-11T23:54:40.788Z,48.10
2019-03-11T23:57:07.843Z,48.20
2019-03-11T23:59:34.908Z,48.20
